sensor_id;sensor_type;location;lat;lon;timestamp;temperature;humidity
28747;DHT22;15903;49.008;8.394;2023-07-24T00:01:14;23.60;76.60
28747;DHT22;15903;49.008;8.394;2023-07-24T00:03:40;23.50;77.10
28747;DHT22;15903;49.008;8.394;2023-07-24T00:06:05;23.40;77.60
28747;DHT22;15903;49.008;8.394;2023-07-24T00:08:31;23.40;78.10
28747;DHT22;15903;49.008;8.394;2023-07-24T00:10:57;23.40;78.70
28747;DHT22;15903;49.008;8.394;2023-07-24T00:13:22;23.40;78.80
28747;DHT22;15903;49.008;8.394;2023-07-24T00:15:48;23.40;78.50
28747;DHT22;15903;49.008;8.394;2023-07-24T00:18:13;23.40;79.40
28747;DHT22;15903;49.008;8.394;2023-07-24T00:20:39;23.40;79.00
28747;DHT22;15903;49.008;8.394;2023-07-24T00:23:04;23.30;79.00
28747;DHT22;15903;49.008;8.394;2023-07-24T00:25:30;23.30;78.90
28747;DHT22;15903;49.008;8.394;2023-07-24T00:27:55;23.30;79.60
28747;DHT22;15903;49.008;8.394;2023-07-24T00:30:21;23.20;80.20
28747;DHT22;15903;49.008;8.394;2023-07-24T00:32:47;23.20;80.80
28747;DHT22;15903;49.008;8.394;2023-07-24T00:35:12;23.10;81.00
28747;DHT22;15903;49.008;8.394;2023-07-24T00:37:38;23.10;81.10
28747;DHT22;15903;49.008;8.394;2023-07-24T00:40:04;23.10;81.40
28747;DHT22;15903;49.008;8.394;2023-07-24T00:42:30;23.10;81.20
28747;DHT22;15903;49.008;8.394;2023-07-24T00:44:55;23.00;81.50
28747;DHT22;15903;49.008;8.394;2023-07-24T00:47:21;23.00;82.00
28747;DHT22;15903;49.008;8.394;2023-07-24T00:49:48;23.00;82.50
28747;DHT22;15903;49.008;8.394;2023-07-24T00:52:14;23.00;83.20
28747;DHT22;15903;49.008;8.394;2023-07-24T00:54:41;22.90;82.50
28747;DHT22;15903;49.008;8.394;2023-07-24T00:57:08;22.90;83.40
28747;DHT22;15903;49.008;8.394;2023-07-24T00:59:34;22.80;84.30
28747;DHT22;15903;49.008;8.394;2023-07-24T01:02:00;22.80;85.20
28747;DHT22;15903;49.008;8.394;2023-07-24T01:04:26;22.80;85.60
28747;DHT22;15903;49.008;8.394;2023-07-24T01:06:51;22.70;86.20
28747;DHT22;15903;49.008;8.394;2023-07-24T01:09:17;22.70;86.60
28747;DHT22;15903;49.008;8.394;2023-07-24T01:11:50;22.70;86.80
28747;DHT22;15903;49.008;8.394;2023-07-24T01:14:21;22.70;86.80
28747;DHT22;15903;49.008;8.394;2023-07-24T01:16:48;22.70;87.60
28747;DHT22;15903;49.008;8.394;2023-07-24T01:19:40;22.70;87.90
28747;DHT22;15903;49.008;8.394;2023-07-24T01:25:18;22.60;88.40
28747;DHT22;15903;49.008;8.394;2023-07-24T01:27:47;22.60;88.70
28747;DHT22;15903;49.008;8.394;2023-07-24T01:30:17;22.60;88.80
28747;DHT22;15903;49.008;8.394;2023-07-24T01:32:43;22.60;88.70
28747;DHT22;15903;49.008;8.394;2023-07-24T01:35:09;22.60;88.80
28747;DHT22;15903;49.008;8.394;2023-07-24T01:37:35;22.60;89.00
28747;DHT22;15903;49.008;8.394;2023-07-24T01:40:03;22.50;88.60
28747;DHT22;15903;49.008;8.394;2023-07-24T01:42:29;22.50;88.40
28747;DHT22;15903;49.008;8.394;2023-07-24T01:44:55;22.50;88.30
28747;DHT22;15903;49.008;8.394;2023-07-24T01:47:21;22.50;89.30
28747;DHT22;15903;49.008;8.394;2023-07-24T01:49:48;22.50;88.20
28747;DHT22;15903;49.008;8.394;2023-07-24T01:52:14;22.40;88.90
28747;DHT22;15903;49.008;8.394;2023-07-24T01:54:39;22.30;89.30
28747;DHT22;15903;49.008;8.394;2023-07-24T01:57:05;22.40;90.10
28747;DHT22;15903;49.008;8.394;2023-07-24T01:59:31;22.50;90.00
28747;DHT22;15903;49.008;8.394;2023-07-24T02:01:56;22.40;90.20
28747;DHT22;15903;49.008;8.394;2023-07-24T02:04:22;22.40;90.60
28747;DHT22;15903;49.008;8.394;2023-07-24T02:06:51;22.50;90.50
28747;DHT22;15903;49.008;8.394;2023-07-24T02:09:18;22.50;90.50
28747;DHT22;15903;49.008;8.394;2023-07-24T02:11:44;22.50;90.60
28747;DHT22;15903;49.008;8.394;2023-07-24T02:14:12;22.40;90.70
28747;DHT22;15903;49.008;8.394;2023-07-24T02:16:38;22.40;91.00
28747;DHT22;15903;49.008;8.394;2023-07-24T02:19:04;22.50;91.00
28747;DHT22;15903;49.008;8.394;2023-07-24T02:21:30;22.50;91.00
28747;DHT22;15903;49.008;8.394;2023-07-24T02:23:56;22.50;90.90
28747;DHT22;15903;49.008;8.394;2023-07-24T02:26:21;22.50;90.70
28747;DHT22;15903;49.008;8.394;2023-07-24T02:28:47;22.50;90.60
28747;DHT22;15903;49.008;8.394;2023-07-24T02:31:12;22.50;90.80
28747;DHT22;15903;49.008;8.394;2023-07-24T02:33:38;22.50;90.70
28747;DHT22;15903;49.008;8.394;2023-07-24T02:36:04;22.50;90.80
28747;DHT22;15903;49.008;8.394;2023-07-24T02:38:29;22.50;90.80
28747;DHT22;15903;49.008;8.394;2023-07-24T02:40:55;22.50;90.90
28747;DHT22;15903;49.008;8.394;2023-07-24T02:43:20;22.40;91.00
28747;DHT22;15903;49.008;8.394;2023-07-24T02:45:46;22.40;91.30
28747;DHT22;15903;49.008;8.394;2023-07-24T02:48:12;22.40;91.30
28747;DHT22;15903;49.008;8.394;2023-07-24T02:50:37;22.40;91.60
28747;DHT22;15903;49.008;8.394;2023-07-24T02:53:03;22.40;91.50
28747;DHT22;15903;49.008;8.394;2023-07-24T02:55:29;22.40;91.70
28747;DHT22;15903;49.008;8.394;2023-07-24T02:57:55;22.40;91.80
28747;DHT22;15903;49.008;8.394;2023-07-24T03:00:20;22.40;92.00
28747;DHT22;15903;49.008;8.394;2023-07-24T03:02:46;22.40;92.10
28747;DHT22;15903;49.008;8.394;2023-07-24T03:05:11;22.40;92.20
28747;DHT22;15903;49.008;8.394;2023-07-24T03:07:37;22.30;92.20
28747;DHT22;15903;49.008;8.394;2023-07-24T03:10:03;22.30;92.20
28747;DHT22;15903;49.008;8.394;2023-07-24T03:12:29;22.30;92.30
28747;DHT22;15903;49.008;8.394;2023-07-24T03:14:54;22.20;92.50
28747;DHT22;15903;49.008;8.394;2023-07-24T03:17:20;22.20;92.70
28747;DHT22;15903;49.008;8.394;2023-07-24T03:19:48;22.20;92.70
28747;DHT22;15903;49.008;8.394;2023-07-24T03:22:13;22.20;92.90
28747;DHT22;15903;49.008;8.394;2023-07-24T03:24:39;22.10;93.00
28747;DHT22;15903;49.008;8.394;2023-07-24T03:27:05;22.10;93.20
28747;DHT22;15903;49.008;8.394;2023-07-24T03:29:30;22.10;93.50
28747;DHT22;15903;49.008;8.394;2023-07-24T03:31:56;22.10;93.50
28747;DHT22;15903;49.008;8.394;2023-07-24T03:34:21;22.00;93.70
28747;DHT22;15903;49.008;8.394;2023-07-24T03:36:47;22.00;93.90
28747;DHT22;15903;49.008;8.394;2023-07-24T03:39:13;21.90;94.10
28747;DHT22;15903;49.008;8.394;2023-07-24T03:41:39;21.90;94.30
28747;DHT22;15903;49.008;8.394;2023-07-24T03:44:05;21.90;94.50
28747;DHT22;15903;49.008;8.394;2023-07-24T03:46:32;21.90;94.50
28747;DHT22;15903;49.008;8.394;2023-07-24T03:48:58;21.90;94.80
28747;DHT22;15903;49.008;8.394;2023-07-24T03:51:24;21.80;95.00
28747;DHT22;15903;49.008;8.394;2023-07-24T03:53:49;21.90;95.00
28747;DHT22;15903;49.008;8.394;2023-07-24T03:56:15;21.90;95.00
28747;DHT22;15903;49.008;8.394;2023-07-24T03:58:41;21.90;95.10
28747;DHT22;15903;49.008;8.394;2023-07-24T04:01:07;21.90;95.20
28747;DHT22;15903;49.008;8.394;2023-07-24T04:03:33;21.90;95.40
28747;DHT22;15903;49.008;8.394;2023-07-24T04:05:59;21.90;95.30
28747;DHT22;15903;49.008;8.394;2023-07-24T04:08:25;21.90;95.40
28747;DHT22;15903;49.008;8.394;2023-07-24T04:10:50;21.90;95.60
28747;DHT22;15903;49.008;8.394;2023-07-24T04:13:16;21.90;95.70
28747;DHT22;15903;49.008;8.394;2023-07-24T04:15:41;21.90;95.70
28747;DHT22;15903;49.008;8.394;2023-07-24T04:18:07;21.80;95.90
28747;DHT22;15903;49.008;8.394;2023-07-24T04:20:33;21.90;95.90
28747;DHT22;15903;49.008;8.394;2023-07-24T04:22:58;21.90;95.90
28747;DHT22;15903;49.008;8.394;2023-07-24T04:25:24;21.90;95.80
28747;DHT22;15903;49.008;8.394;2023-07-24T04:27:50;21.90;95.90
28747;DHT22;15903;49.008;8.394;2023-07-24T04:30:15;22.00;95.90
28747;DHT22;15903;49.008;8.394;2023-07-24T04:32:41;22.00;95.90
28747;DHT22;15903;49.008;8.394;2023-07-24T04:35:07;22.00;95.90
28747;DHT22;15903;49.008;8.394;2023-07-24T04:37:33;22.00;95.90
28747;DHT22;15903;49.008;8.394;2023-07-24T04:39:59;22.00;95.90
28747;DHT22;15903;49.008;8.394;2023-07-24T04:42:24;22.00;96.10
28747;DHT22;15903;49.008;8.394;2023-07-24T04:44:50;22.10;96.20
28747;DHT22;15903;49.008;8.394;2023-07-24T04:47:17;22.10;96.30
28747;DHT22;15903;49.008;8.394;2023-07-24T04:49:42;22.10;96.20
28747;DHT22;15903;49.008;8.394;2023-07-24T04:52:08;22.20;96.10
28747;DHT22;15903;49.008;8.394;2023-07-24T04:54:33;22.20;96.10
28747;DHT22;15903;49.008;8.394;2023-07-24T04:56:59;22.10;95.90
28747;DHT22;15903;49.008;8.394;2023-07-24T04:59:24;22.00;96.30
28747;DHT22;15903;49.008;8.394;2023-07-24T05:01:50;22.00;96.60
28747;DHT22;15903;49.008;8.394;2023-07-24T05:04:16;22.10;96.40
28747;DHT22;15903;49.008;8.394;2023-07-24T05:06:41;22.10;96.40
28747;DHT22;15903;49.008;8.394;2023-07-24T05:09:07;22.10;96.50
28747;DHT22;15903;49.008;8.394;2023-07-24T05:11:33;22.00;96.60
28747;DHT22;15903;49.008;8.394;2023-07-24T05:13:59;22.00;96.80
28747;DHT22;15903;49.008;8.394;2023-07-24T05:16:24;21.90;97.00
28747;DHT22;15903;49.008;8.394;2023-07-24T05:18:50;21.90;97.20
28747;DHT22;15903;49.008;8.394;2023-07-24T05:21:16;21.90;97.40
28747;DHT22;15903;49.008;8.394;2023-07-24T05:23:41;21.90;97.50
28747;DHT22;15903;49.008;8.394;2023-07-24T05:26:07;21.90;97.30
28747;DHT22;15903;49.008;8.394;2023-07-24T05:28:33;21.90;97.30
28747;DHT22;15903;49.008;8.394;2023-07-24T05:31:03;21.80;97.50
28747;DHT22;15903;49.008;8.394;2023-07-24T05:33:29;21.80;97.80
28747;DHT22;15903;49.008;8.394;2023-07-24T05:35:59;21.90;98.10
28747;DHT22;15903;49.008;8.394;2023-07-24T05:38:25;22.00;97.70
28747;DHT22;15903;49.008;8.394;2023-07-24T05:41:01;22.10;97.70
28747;DHT22;15903;49.008;8.394;2023-07-24T05:43:28;22.20;97.80
28747;DHT22;15903;49.008;8.394;2023-07-24T05:45:55;22.20;97.70
28747;DHT22;15903;49.008;8.394;2023-07-24T05:48:21;22.30;97.80
28747;DHT22;15903;49.008;8.394;2023-07-24T05:50:47;22.30;98.00
28747;DHT22;15903;49.008;8.394;2023-07-24T05:53:13;22.40;97.90
28747;DHT22;15903;49.008;8.394;2023-07-24T05:55:39;22.40;97.80
28747;DHT22;15903;49.008;8.394;2023-07-24T05:58:04;22.40;97.80
28747;DHT22;15903;49.008;8.394;2023-07-24T06:00:30;22.40;97.90
28747;DHT22;15903;49.008;8.394;2023-07-24T06:02:56;22.40;97.90
28747;DHT22;15903;49.008;8.394;2023-07-24T06:05:21;22.40;98.10
28747;DHT22;15903;49.008;8.394;2023-07-24T06:07:47;22.40;98.10
28747;DHT22;15903;49.008;8.394;2023-07-24T06:10:13;22.40;98.40
28747;DHT22;15903;49.008;8.394;2023-07-24T06:12:39;22.40;98.40
28747;DHT22;15903;49.008;8.394;2023-07-24T06:15:05;22.40;98.40
28747;DHT22;15903;49.008;8.394;2023-07-24T06:17:31;22.60;98.50
28747;DHT22;15903;49.008;8.394;2023-07-24T06:19:57;22.60;98.40
28747;DHT22;15903;49.008;8.394;2023-07-24T06:22:23;22.70;98.40
28747;DHT22;15903;49.008;8.394;2023-07-24T06:24:48;22.80;98.10
28747;DHT22;15903;49.008;8.394;2023-07-24T06:27:14;22.80;97.80
28747;DHT22;15903;49.008;8.394;2023-07-24T06:29:40;22.80;97.30
28747;DHT22;15903;49.008;8.394;2023-07-24T06:32:06;23.00;97.20
28747;DHT22;15903;49.008;8.394;2023-07-24T06:34:32;23.00;96.90
28747;DHT22;15903;49.008;8.394;2023-07-24T06:36:58;23.10;96.70
28747;DHT22;15903;49.008;8.394;2023-07-24T06:39:24;23.20;96.40
28747;DHT22;15903;49.008;8.394;2023-07-24T06:41:52;23.20;96.00
28747;DHT22;15903;49.008;8.394;2023-07-24T06:44:17;23.40;95.80
28747;DHT22;15903;49.008;8.394;2023-07-24T06:46:43;23.60;95.50
28747;DHT22;15903;49.008;8.394;2023-07-24T06:49:09;23.80;95.10
28747;DHT22;15903;49.008;8.394;2023-07-24T06:51:35;23.80;94.80
28747;DHT22;15903;49.008;8.394;2023-07-24T06:54:01;23.80;94.40
28747;DHT22;15903;49.008;8.394;2023-07-24T06:56:28;23.90;94.50
28747;DHT22;15903;49.008;8.394;2023-07-24T06:58:53;23.90;93.90
28747;DHT22;15903;49.008;8.394;2023-07-24T07:01:19;23.90;92.70
28747;DHT22;15903;49.008;8.394;2023-07-24T07:03:44;23.90;92.10
28747;DHT22;15903;49.008;8.394;2023-07-24T07:06:10;23.80;92.00
28747;DHT22;15903;49.008;8.394;2023-07-24T07:08:37;23.60;92.00
28747;DHT22;15903;49.008;8.394;2023-07-24T07:11:02;23.50;92.40
28747;DHT22;15903;49.008;8.394;2023-07-24T07:13:28;23.50;92.50
28747;DHT22;15903;49.008;8.394;2023-07-24T07:15:54;23.50;93.60
28747;DHT22;15903;49.008;8.394;2023-07-24T07:18:19;23.50;94.20
28747;DHT22;15903;49.008;8.394;2023-07-24T07:20:46;23.50;94.40
28747;DHT22;15903;49.008;8.394;2023-07-24T07:23:12;23.50;94.30
28747;DHT22;15903;49.008;8.394;2023-07-24T07:25:38;23.50;94.30
28747;DHT22;15903;49.008;8.394;2023-07-24T07:28:03;23.50;94.40
28747;DHT22;15903;49.008;8.394;2023-07-24T07:30:29;23.60;94.70
28747;DHT22;15903;49.008;8.394;2023-07-24T07:32:54;23.70;94.70
28747;DHT22;15903;49.008;8.394;2023-07-24T07:35:20;23.60;94.50
28747;DHT22;15903;49.008;8.394;2023-07-24T07:37:46;23.50;95.10
28747;DHT22;15903;49.008;8.394;2023-07-24T07:40:11;23.40;94.90
28747;DHT22;15903;49.008;8.394;2023-07-24T07:42:37;23.30;95.60
28747;DHT22;15903;49.008;8.394;2023-07-24T07:45:03;23.30;95.40
28747;DHT22;15903;49.008;8.394;2023-07-24T07:47:28;23.20;95.50
28747;DHT22;15903;49.008;8.394;2023-07-24T07:49:54;23.20;95.40
28747;DHT22;15903;49.008;8.394;2023-07-24T07:52:20;23.00;95.20
28747;DHT22;15903;49.008;8.394;2023-07-24T07:54:47;23.10;95.50
28747;DHT22;15903;49.008;8.394;2023-07-24T07:57:13;23.10;95.30
28747;DHT22;15903;49.008;8.394;2023-07-24T07:59:39;23.20;95.40
28747;DHT22;15903;49.008;8.394;2023-07-24T08:02:05;23.30;95.60
28747;DHT22;15903;49.008;8.394;2023-07-24T08:04:30;23.30;95.90
28747;DHT22;15903;49.008;8.394;2023-07-24T08:06:56;23.40;96.20
28747;DHT22;15903;49.008;8.394;2023-07-24T08:09:21;23.40;95.50
28747;DHT22;15903;49.008;8.394;2023-07-24T08:11:49;23.40;95.50
28747;DHT22;15903;49.008;8.394;2023-07-24T08:14:16;23.40;96.00
28747;DHT22;15903;49.008;8.394;2023-07-24T08:16:41;23.40;95.70
28747;DHT22;15903;49.008;8.394;2023-07-24T08:19:07;23.60;95.80
28747;DHT22;15903;49.008;8.394;2023-07-24T08:21:32;23.70;95.70
28747;DHT22;15903;49.008;8.394;2023-07-24T08:23:58;23.70;95.60
28747;DHT22;15903;49.008;8.394;2023-07-24T08:26:25;23.90;95.50
28747;DHT22;15903;49.008;8.394;2023-07-24T08:28:52;24.00;95.40
28747;DHT22;15903;49.008;8.394;2023-07-24T08:31:17;24.10;95.30
28747;DHT22;15903;49.008;8.394;2023-07-24T08:33:43;24.10;95.20
28747;DHT22;15903;49.008;8.394;2023-07-24T08:36:08;24.00;94.90
28747;DHT22;15903;49.008;8.394;2023-07-24T08:38:35;23.90;95.10
28747;DHT22;15903;49.008;8.394;2023-07-24T08:41:09;23.80;95.40
28747;DHT22;15903;49.008;8.394;2023-07-24T08:43:37;23.70;95.50
28747;DHT22;15903;49.008;8.394;2023-07-24T08:46:04;23.80;95.80
28747;DHT22;15903;49.008;8.394;2023-07-24T08:48:32;24.00;96.00
28747;DHT22;15903;49.008;8.394;2023-07-24T08:51:05;24.20;95.30
28747;DHT22;15903;49.008;8.394;2023-07-24T08:53:39;24.60;95.00
28747;DHT22;15903;49.008;8.394;2023-07-24T08:56:06;24.90;94.40
28747;DHT22;15903;49.008;8.394;2023-07-24T08:58:33;25.10;94.20
28747;DHT22;15903;49.008;8.394;2023-07-24T09:01:00;25.10;93.50
28747;DHT22;15903;49.008;8.394;2023-07-24T09:03:26;24.90;93.60
28747;DHT22;15903;49.008;8.394;2023-07-24T09:05:52;24.60;94.10
28747;DHT22;15903;49.008;8.394;2023-07-24T09:08:28;24.40;94.40
28747;DHT22;15903;49.008;8.394;2023-07-24T09:10:55;24.40;94.90
28747;DHT22;15903;49.008;8.394;2023-07-24T09:13:21;24.40;94.90
28747;DHT22;15903;49.008;8.394;2023-07-24T09:15:46;24.40;95.30
28747;DHT22;15903;49.008;8.394;2023-07-24T09:18:12;24.50;95.30
28747;DHT22;15903;49.008;8.394;2023-07-24T09:20:39;24.60;94.80
28747;DHT22;15903;49.008;8.394;2023-07-24T09:23:06;24.80;94.60
28747;DHT22;15903;49.008;8.394;2023-07-24T09:25:33;24.90;94.40
28747;DHT22;15903;49.008;8.394;2023-07-24T09:27:59;25.10;94.10
28747;DHT22;15903;49.008;8.394;2023-07-24T09:30:25;25.30;93.60
28747;DHT22;15903;49.008;8.394;2023-07-24T09:32:54;25.30;93.30
28747;DHT22;15903;49.008;8.394;2023-07-24T09:35:20;25.30;93.30
28747;DHT22;15903;49.008;8.394;2023-07-24T09:37:47;25.30;93.40
28747;DHT22;15903;49.008;8.394;2023-07-24T09:40:14;25.30;93.50
28747;DHT22;15903;49.008;8.394;2023-07-24T09:42:40;25.30;93.70
28747;DHT22;15903;49.008;8.394;2023-07-24T09:45:06;25.20;93.30
28747;DHT22;15903;49.008;8.394;2023-07-24T09:47:34;25.20;93.60
28747;DHT22;15903;49.008;8.394;2023-07-24T09:50:03;25.10;93.90
28747;DHT22;15903;49.008;8.394;2023-07-24T09:52:30;24.90;94.00
28747;DHT22;15903;49.008;8.394;2023-07-24T09:55:11;24.70;94.20
28747;DHT22;15903;49.008;8.394;2023-07-24T09:57:37;24.60;94.50
28747;DHT22;15903;49.008;8.394;2023-07-24T10:00:03;24.50;94.90
28747;DHT22;15903;49.008;8.394;2023-07-24T10:02:30;24.50;95.40
28747;DHT22;15903;49.008;8.394;2023-07-24T10:04:56;24.50;95.70
28747;DHT22;15903;49.008;8.394;2023-07-24T10:07:22;24.50;96.00
28747;DHT22;15903;49.008;8.394;2023-07-24T10:09:49;24.50;96.10
28747;DHT22;15903;49.008;8.394;2023-07-24T10:12:17;24.40;96.50
28747;DHT22;15903;49.008;8.394;2023-07-24T10:14:44;24.40;96.60
28747;DHT22;15903;49.008;8.394;2023-07-24T10:17:10;24.40;96.60
28747;DHT22;15903;49.008;8.394;2023-07-24T10:19:39;24.40;96.80
28747;DHT22;15903;49.008;8.394;2023-07-24T10:22:05;24.40;97.10
28747;DHT22;15903;49.008;8.394;2023-07-24T10:24:31;24.30;97.40
28747;DHT22;15903;49.008;8.394;2023-07-24T10:26:58;24.20;97.80
28747;DHT22;15903;49.008;8.394;2023-07-24T10:29:24;24.20;97.90
28747;DHT22;15903;49.008;8.394;2023-07-24T10:31:54;24.10;97.80
28747;DHT22;15903;49.008;8.394;2023-07-24T10:34:20;24.10;98.00
28747;DHT22;15903;49.008;8.394;2023-07-24T10:36:46;24.20;98.40
28747;DHT22;15903;49.008;8.394;2023-07-24T10:39:16;24.10;98.80
28747;DHT22;15903;49.008;8.394;2023-07-24T10:41:44;24.10;99.30
28747;DHT22;15903;49.008;8.394;2023-07-24T10:44:11;24.10;99.90
28747;DHT22;15903;49.008;8.394;2023-07-24T10:46:41;24.00;99.90
28747;DHT22;15903;49.008;8.394;2023-07-24T10:49:08;24.10;99.90
28747;DHT22;15903;49.008;8.394;2023-07-24T10:51:34;24.10;99.90
28747;DHT22;15903;49.008;8.394;2023-07-24T10:54:03;24.20;99.90
28747;DHT22;15903;49.008;8.394;2023-07-24T10:56:29;24.30;99.90
28747;DHT22;15903;49.008;8.394;2023-07-24T10:58:55;24.40;99.60
28747;DHT22;15903;49.008;8.394;2023-07-24T11:01:21;24.50;99.60
28747;DHT22;15903;49.008;8.394;2023-07-24T11:03:50;24.60;99.10
28747;DHT22;15903;49.008;8.394;2023-07-24T11:06:18;24.70;98.50
28747;DHT22;15903;49.008;8.394;2023-07-24T11:08:54;24.70;98.30
28747;DHT22;15903;49.008;8.394;2023-07-24T11:11:22;24.80;98.00
28747;DHT22;15903;49.008;8.394;2023-07-24T11:13:48;24.80;98.40
28747;DHT22;15903;49.008;8.394;2023-07-24T11:16:14;24.90;98.20
28747;DHT22;15903;49.008;8.394;2023-07-24T11:18:47;24.90;97.50
28747;DHT22;15903;49.008;8.394;2023-07-24T11:21:13;25.00;97.30
28747;DHT22;15903;49.008;8.394;2023-07-24T11:23:52;25.00;96.20
28747;DHT22;15903;49.008;8.394;2023-07-24T11:26:19;24.90;95.90
28747;DHT22;15903;49.008;8.394;2023-07-24T11:28:46;25.00;95.70
28747;DHT22;15903;49.008;8.394;2023-07-24T11:31:11;25.30;95.30
28747;DHT22;15903;49.008;8.394;2023-07-24T11:33:38;25.50;94.70
28747;DHT22;15903;49.008;8.394;2023-07-24T11:36:04;25.70;94.60
28747;DHT22;15903;49.008;8.394;2023-07-24T11:38:30;25.80;94.30
28747;DHT22;15903;49.008;8.394;2023-07-24T11:40:56;25.80;93.90
28747;DHT22;15903;49.008;8.394;2023-07-24T11:43:23;25.80;93.60
28747;DHT22;15903;49.008;8.394;2023-07-24T11:45:50;25.80;93.40
28747;DHT22;15903;49.008;8.394;2023-07-24T11:48:20;26.00;92.90
28747;DHT22;15903;49.008;8.394;2023-07-24T11:50:50;26.20;92.90
28747;DHT22;15903;49.008;8.394;2023-07-24T11:55:48;26.50;91.30
28747;DHT22;15903;49.008;8.394;2023-07-24T11:58:15;26.30;91.20
28747;DHT22;15903;49.008;8.394;2023-07-24T12:00:41;26.00;91.20
28747;DHT22;15903;49.008;8.394;2023-07-24T12:03:07;25.90;91.70
28747;DHT22;15903;49.008;8.394;2023-07-24T12:05:43;25.90;91.90
28747;DHT22;15903;49.008;8.394;2023-07-24T12:08:10;25.80;91.40
28747;DHT22;15903;49.008;8.394;2023-07-24T12:10:37;25.70;91.40
28747;DHT22;15903;49.008;8.394;2023-07-24T12:13:04;25.50;92.00
28747;DHT22;15903;49.008;8.394;2023-07-24T12:15:30;25.40;92.20
28747;DHT22;15903;49.008;8.394;2023-07-24T12:17:56;25.40;92.30
28747;DHT22;15903;49.008;8.394;2023-07-24T12:20:22;25.90;92.50
28747;DHT22;15903;49.008;8.394;2023-07-24T12:22:49;26.30;91.80
28747;DHT22;15903;49.008;8.394;2023-07-24T12:25:15;26.70;91.20
28747;DHT22;15903;49.008;8.394;2023-07-24T12:27:41;26.90;90.60
28747;DHT22;15903;49.008;8.394;2023-07-24T12:30:08;27.10;88.70
28747;DHT22;15903;49.008;8.394;2023-07-24T12:32:34;27.10;88.30
28747;DHT22;15903;49.008;8.394;2023-07-24T12:35:00;27.10;88.30
28747;DHT22;15903;49.008;8.394;2023-07-24T12:37:26;27.00;88.30
28747;DHT22;15903;49.008;8.394;2023-07-24T12:39:51;27.00;86.90
28747;DHT22;15903;49.008;8.394;2023-07-24T12:42:17;26.80;87.50
28747;DHT22;15903;49.008;8.394;2023-07-24T12:44:43;26.70;87.20
28747;DHT22;15903;49.008;8.394;2023-07-24T12:47:10;26.80;88.40
28747;DHT22;15903;49.008;8.394;2023-07-24T12:49:36;26.80;87.40
28747;DHT22;15903;49.008;8.394;2023-07-24T12:52:02;26.90;86.50
28747;DHT22;15903;49.008;8.394;2023-07-24T12:54:28;27.10;87.10
28747;DHT22;15903;49.008;8.394;2023-07-24T12:56:54;27.10;84.40
28747;DHT22;15903;49.008;8.394;2023-07-24T12:59:20;26.70;83.80
28747;DHT22;15903;49.008;8.394;2023-07-24T13:01:46;26.50;84.40
28747;DHT22;15903;49.008;8.394;2023-07-24T13:04:12;26.40;85.30
28747;DHT22;15903;49.008;8.394;2023-07-24T13:06:38;26.40;84.70
28747;DHT22;15903;49.008;8.394;2023-07-24T13:09:05;26.60;83.90
28747;DHT22;15903;49.008;8.394;2023-07-24T13:11:31;26.80;84.00
28747;DHT22;15903;49.008;8.394;2023-07-24T13:13:56;26.90;83.10
28747;DHT22;15903;49.008;8.394;2023-07-24T13:16:22;26.80;82.80
28747;DHT22;15903;49.008;8.394;2023-07-24T13:18:48;26.80;84.20
28747;DHT22;15903;49.008;8.394;2023-07-24T13:21:14;26.60;83.40
28747;DHT22;15903;49.008;8.394;2023-07-24T13:23:40;26.70;84.00
28747;DHT22;15903;49.008;8.394;2023-07-24T13:26:06;26.90;83.40
28747;DHT22;15903;49.008;8.394;2023-07-24T13:28:33;26.90;82.80
28747;DHT22;15903;49.008;8.394;2023-07-24T13:30:59;27.10;81.70
28747;DHT22;15903;49.008;8.394;2023-07-24T13:33:25;27.30;81.40
28747;DHT22;15903;49.008;8.394;2023-07-24T13:35:50;27.60;81.60
28747;DHT22;15903;49.008;8.394;2023-07-24T13:38:16;27.80;80.70
28747;DHT22;15903;49.008;8.394;2023-07-24T13:40:42;27.80;78.50
28747;DHT22;15903;49.008;8.394;2023-07-24T13:43:07;27.90;78.20
28747;DHT22;15903;49.008;8.394;2023-07-24T13:45:33;27.90;77.40
28747;DHT22;15903;49.008;8.394;2023-07-24T13:47:59;28.00;77.20
28747;DHT22;15903;49.008;8.394;2023-07-24T13:50:24;28.20;76.90
28747;DHT22;15903;49.008;8.394;2023-07-24T13:52:50;28.10;75.10
28747;DHT22;15903;49.008;8.394;2023-07-24T13:55:15;28.00;75.90
28747;DHT22;15903;49.008;8.394;2023-07-24T13:57:41;28.10;76.10
28747;DHT22;15903;49.008;8.394;2023-07-24T14:00:07;28.20;75.20
28747;DHT22;15903;49.008;8.394;2023-07-24T14:02:33;28.20;75.00
28747;DHT22;15903;49.008;8.394;2023-07-24T14:04:59;28.50;74.60
28747;DHT22;15903;49.008;8.394;2023-07-24T14:07:24;28.50;74.10
28747;DHT22;15903;49.008;8.394;2023-07-24T14:09:50;28.50;73.90
28747;DHT22;15903;49.008;8.394;2023-07-24T14:12:16;28.70;74.30
28747;DHT22;15903;49.008;8.394;2023-07-24T14:14:41;28.80;74.60
28747;DHT22;15903;49.008;8.394;2023-07-24T14:17:07;29.00;73.60
28747;DHT22;15903;49.008;8.394;2023-07-24T14:19:33;29.00;72.60
28747;DHT22;15903;49.008;8.394;2023-07-24T14:21:58;28.80;72.70
28747;DHT22;15903;49.008;8.394;2023-07-24T14:24:24;28.40;73.90
28747;DHT22;15903;49.008;8.394;2023-07-24T14:26:50;28.00;75.10
28747;DHT22;15903;49.008;8.394;2023-07-24T14:29:15;27.70;75.70
28747;DHT22;15903;49.008;8.394;2023-07-24T14:31:44;27.30;76.40
28747;DHT22;15903;49.008;8.394;2023-07-24T14:34:10;26.80;77.30
28747;DHT22;15903;49.008;8.394;2023-07-24T14:36:38;26.40;78.80
28747;DHT22;15903;49.008;8.394;2023-07-24T14:39:04;26.20;81.80
28747;DHT22;15903;49.008;8.394;2023-07-24T14:41:30;25.90;87.60
28747;DHT22;15903;49.008;8.394;2023-07-24T14:43:56;25.60;89.70
28747;DHT22;15903;49.008;8.394;2023-07-24T14:46:23;25.40;90.60
28747;DHT22;15903;49.008;8.394;2023-07-24T14:48:49;25.20;91.30
28747;DHT22;15903;49.008;8.394;2023-07-24T14:51:15;25.10;91.70
28747;DHT22;15903;49.008;8.394;2023-07-24T14:53:40;25.10;92.20
28747;DHT22;15903;49.008;8.394;2023-07-24T14:56:06;25.10;93.20
28747;DHT22;15903;49.008;8.394;2023-07-24T14:58:32;25.00;93.40
28747;DHT22;15903;49.008;8.394;2023-07-24T15:00:57;24.90;94.10
28747;DHT22;15903;49.008;8.394;2023-07-24T15:03:23;24.70;94.80
28747;DHT22;15903;49.008;8.394;2023-07-24T15:05:49;24.70;95.90
28747;DHT22;15903;49.008;8.394;2023-07-24T15:08:14;24.80;96.70
28747;DHT22;15903;49.008;8.394;2023-07-24T15:10:40;24.80;97.40
28747;DHT22;15903;49.008;8.394;2023-07-24T15:13:08;24.80;97.50
28747;DHT22;15903;49.008;8.394;2023-07-24T15:15:34;24.80;98.10
28747;DHT22;15903;49.008;8.394;2023-07-24T15:18:00;24.70;98.20
28747;DHT22;15903;49.008;8.394;2023-07-24T15:20:26;24.70;98.40
28747;DHT22;15903;49.008;8.394;2023-07-24T15:22:51;24.80;99.00
28747;DHT22;15903;49.008;8.394;2023-07-24T15:25:20;24.80;99.10
28747;DHT22;15903;49.008;8.394;2023-07-24T15:27:46;24.70;99.50
28747;DHT22;15903;49.008;8.394;2023-07-24T15:30:12;24.80;99.90